createdAt,value
2022-11-29T00:02:36.726Z,101273.60
2022-11-29T00:07:37.614Z,101271.00
2022-11-29T00:12:37.107Z,101270.00
2022-11-29T00:17:37.345Z,101272.40
2022-11-29T00:22:39.564Z,101272.80
2022-11-29T00:27:43.862Z,101280.20
2022-11-29T00:32:43.200Z,101278.80
2022-11-29T00:37:42.330Z,101278.00
2022-11-29T00:42:42.641Z,101277.00
2022-11-29T00:47:41.777Z,101274.80
2022-11-29T00:52:40.828Z,101275.00
2022-11-29T00:57:40.053Z,101273.20
2022-11-29T01:02:39.487Z,101278.20
2022-11-29T01:07:38.505Z,101266.80
2022-11-29T01:12:42.560Z,101265.80
2022-11-29T01:17:44.246Z,101259.80
2022-11-29T01:22:44.279Z,101262.40
2022-11-29T01:27:45.154Z,101256.00
2022-11-29T01:32:50.502Z,101254.60
2022-11-29T01:37:49.790Z,101245.20
2022-11-29T01:42:48.388Z,101239.80
2022-11-29T01:47:53.072Z,101238.60
2022-11-29T01:52:52.677Z,101235.20
2022-11-29T01:57:52.432Z,101235.40
2022-11-29T02:02:57.775Z,101230.40
2022-11-29T02:08:01.366Z,101231.60
2022-11-29T02:13:14.269Z,101231.20
2022-11-29T02:18:21.201Z,101234.40
2022-11-29T02:23:50.092Z,101235.00
2022-11-29T02:29:29.938Z,101230.40
2022-11-29T02:34:53.382Z,101234.80
2022-11-29T02:40:31.958Z,101230.20
2022-11-29T02:45:46.063Z,101235.60
2022-11-29T02:50:54.965Z,101237.60
2022-11-29T02:56:07.279Z,101241.40
2022-11-29T03:01:18.942Z,101244.20
2022-11-29T03:06:32.348Z,101248.80
2022-11-29T03:11:46.933Z,101254.20
2022-11-29T03:17:01.882Z,101257.60
2022-11-29T03:22:14.283Z,101258.60
2022-11-29T03:27:18.505Z,101257.40
2022-11-29T03:32:29.124Z,101259.40
2022-11-29T03:37:41.901Z,101260.80
2022-11-29T03:42:51.258Z,101259.80
2022-11-29T03:48:03.319Z,101258.60
2022-11-29T03:53:18.952Z,101260.00
2022-11-29T03:58:54.097Z,101268.80
2022-11-29T04:04:25.088Z,101268.00
2022-11-29T04:09:58.812Z,101273.40
2022-11-29T04:15:47.996Z,101277.60
2022-11-29T04:21:32.895Z,101275.00
2022-11-29T04:27:26.037Z,101279.60
2022-11-29T04:33:10.427Z,101285.20
2022-11-29T04:38:39.342Z,101284.00
2022-11-29T04:44:02.475Z,101288.20
2022-11-29T04:49:27.353Z,101289.40
2022-11-29T04:54:36.347Z,101292.80
2022-11-29T04:59:45.372Z,101292.80
2022-11-29T05:05:01.033Z,101297.60
2022-11-29T05:10:33.876Z,101302.00
2022-11-29T05:15:58.930Z,101311.00
2022-11-29T05:21:12.813Z,101314.00
2022-11-29T05:26:22.296Z,101311.40
2022-11-29T05:31:38.721Z,101318.00
2022-11-29T05:36:50.751Z,101320.40
2022-11-29T05:42:10.003Z,101326.00
2022-11-29T05:47:11.330Z,101328.40
2022-11-29T05:52:30.152Z,101335.60
2022-11-29T05:57:40.251Z,101341.80
2022-11-29T06:02:59.710Z,101349.20
2022-11-29T06:08:07.195Z,101357.80
2022-11-29T06:13:22.357Z,101357.40
2022-11-29T06:18:46.480Z,101364.40
2022-11-29T06:24:20.536Z,101370.40
2022-11-29T06:29:36.902Z,101371.40
2022-11-29T06:34:48.472Z,101376.60
2022-11-29T06:39:48.836Z,101376.80
2022-11-29T06:44:51.138Z,101385.80
2022-11-29T06:49:56.847Z,101387.00
2022-11-29T06:55:14.236Z,101385.20
2022-11-29T07:00:21.807Z,101390.00
2022-11-29T07:05:28.933Z,101391.60
2022-11-29T07:10:30.563Z,101393.40
2022-11-29T07:15:32.116Z,101401.40
2022-11-29T07:20:41.259Z,101400.80
2022-11-29T07:25:53.392Z,101403.60
2022-11-29T07:31:05.331Z,101403.00
2022-11-29T07:36:19.106Z,101408.80
2022-11-29T07:41:29.013Z,101409.60
2022-11-29T07:46:28.786Z,101414.20
2022-11-29T07:51:28.303Z,101415.20
2022-11-29T07:56:27.847Z,101416.00
2022-11-29T08:01:27.018Z,101416.00
2022-11-29T08:06:30.108Z,101418.20
2022-11-29T08:11:29.847Z,101422.20
2022-11-29T08:16:28.881Z,101416.40
2022-11-29T08:21:28.652Z,101425.00
2022-11-29T08:26:31.630Z,101422.80
2022-11-29T08:31:30.578Z,101421.00
2022-11-29T08:36:29.230Z,101430.20
2022-11-29T08:41:28.068Z,101426.80
2022-11-29T08:46:46.929Z,101423.60
2022-11-29T08:51:46.049Z,101432.80
2022-11-29T09:02:13.737Z,101427.00
2022-11-29T09:07:16.284Z,101426.00
2022-11-29T09:12:15.611Z,101420.60
2022-11-29T09:17:14.541Z,101423.20
2022-11-29T09:22:13.712Z,101421.20
2022-11-29T09:27:12.634Z,101416.00
2022-11-29T09:32:11.817Z,101420.60
2022-11-29T09:37:10.848Z,101421.60
2022-11-29T09:42:37.596Z,101418.80
2022-11-29T09:48:21.444Z,101416.40
2022-11-29T09:53:43.659Z,101421.00
2022-11-29T09:58:51.829Z,101422.80
2022-11-29T10:03:57.233Z,101418.40
2022-11-29T10:09:03.946Z,101415.60
2022-11-29T10:14:13.447Z,101416.00
2022-11-29T10:19:24.311Z,101413.40
2022-11-29T10:24:29.823Z,101407.80
2022-11-29T10:29:29.068Z,101399.40
2022-11-29T10:34:32.183Z,101401.80
2022-11-29T10:39:42.458Z,101402.20
2022-11-29T10:44:41.387Z,101398.60
2022-11-29T10:49:42.053Z,101401.40
2022-11-29T10:54:45.407Z,101405.00
2022-11-29T11:00:00.175Z,101406.00
2022-11-29T11:05:00.272Z,101406.00
2022-11-29T11:10:00.991Z,101410.60
2022-11-29T11:15:29.746Z,101410.40
2022-11-29T11:20:31.300Z,101410.80
2022-11-29T11:25:36.041Z,101406.60
2022-11-29T11:30:34.933Z,101407.00
2022-11-29T11:35:34.195Z,101403.00
2022-11-29T11:40:36.505Z,101411.40
2022-11-29T11:45:40.434Z,101413.40
2022-11-29T11:50:45.933Z,101419.80
2022-11-29T11:55:54.283Z,101415.20
2022-11-29T12:01:05.687Z,101425.20
2022-11-29T12:06:28.232Z,101427.80
2022-11-29T12:11:33.152Z,101428.20
2022-11-29T12:16:40.609Z,101431.00
2022-11-29T12:21:48.032Z,101424.60
2022-11-29T12:26:57.094Z,101428.40
2022-11-29T12:32:16.099Z,101437.40
2022-11-29T12:37:27.558Z,101433.00
2022-11-29T12:42:43.316Z,101440.20
2022-11-29T12:47:57.299Z,101438.60
2022-11-29T12:53:26.726Z,101441.60
2022-11-29T12:58:34.547Z,101441.40
2022-11-29T13:03:46.232Z,101446.00
2022-11-29T13:09:26.802Z,101445.60
2022-11-29T13:14:43.415Z,101453.20
2022-11-29T13:20:03.461Z,101453.60
2022-11-29T13:25:13.933Z,101460.00
2022-11-29T13:30:19.072Z,101463.80
2022-11-29T13:35:30.857Z,101470.40
2022-11-29T13:40:53.146Z,101473.40
2022-11-29T13:46:00.896Z,101477.60
2022-11-29T13:51:21.107Z,101479.20
2022-11-29T13:56:36.929Z,101475.00
2022-11-29T14:01:51.807Z,101487.60
2022-11-29T14:07:02.643Z,101485.60
2022-11-29T14:12:19.550Z,101488.00
2022-11-29T14:17:53.044Z,101487.60
2022-11-29T14:23:19.115Z,101486.40
2022-11-29T14:28:37.403Z,101486.20
2022-11-29T14:34:02.004Z,101482.40
2022-11-29T14:39:21.811Z,101486.00
2022-11-29T14:44:26.394Z,101481.40
2022-11-29T14:49:30.264Z,101481.20
2022-11-29T14:54:29.427Z,101477.80
2022-11-29T15:00:03.126Z,101485.20
2022-11-29T15:05:17.867Z,101487.40
2022-11-29T15:10:27.008Z,101489.60
2022-11-29T15:15:42.255Z,101491.80
2022-11-29T15:21:07.221Z,101492.80
2022-11-29T15:26:09.811Z,101490.40
2022-11-29T15:31:15.217Z,101489.20
2022-11-29T15:36:21.233Z,101500.20
2022-11-29T15:41:36.269Z,101505.20
2022-11-29T15:46:37.984Z,101511.20
2022-11-29T15:51:41.791Z,101514.60
2022-11-29T15:56:46.289Z,101513.00
2022-11-29T16:01:53.927Z,101522.80
2022-11-29T16:06:55.154Z,101517.00
2022-11-29T16:11:54.090Z,101516.80
2022-11-29T16:16:58.484Z,101513.80
2022-11-29T16:22:23.747Z,101511.80
2022-11-29T16:27:25.147Z,101519.20
2022-11-29T16:32:33.903Z,101516.80
2022-11-29T16:37:43.360Z,101520.60
2022-11-29T16:42:42.696Z,101530.80
2022-11-29T16:47:58.194Z,101535.80
2022-11-29T16:52:59.348Z,101534.40
2022-11-29T16:57:58.850Z,101534.80
2022-11-29T17:02:57.798Z,101544.60
2022-11-29T17:07:57.232Z,101542.20
2022-11-29T17:12:59.497Z,101541.20
2022-11-29T17:17:58.570Z,101540.80
2022-11-29T17:22:57.251Z,101547.40
2022-11-29T17:27:58.211Z,101551.40
2022-11-29T17:32:58.102Z,101551.40
2022-11-29T17:37:57.446Z,101553.60
2022-11-29T17:48:11.788Z,101556.40
2022-11-29T17:53:12.137Z,101564.00
2022-11-29T17:58:12.421Z,101568.80
2022-11-29T18:03:11.804Z,101561.60
2022-11-29T18:08:11.281Z,101554.00
2022-11-29T18:13:10.583Z,101569.80
2022-11-29T18:18:10.915Z,101568.80
2022-11-29T18:23:10.756Z,101562.60
2022-11-29T18:28:14.978Z,101562.60
2022-11-29T18:33:14.608Z,101564.20
2022-11-29T18:38:16.340Z,101565.60
2022-11-29T18:43:16.988Z,101567.00
2022-11-29T18:48:17.138Z,101570.00
2022-11-29T18:53:20.800Z,101575.60
2022-11-29T18:58:19.969Z,101569.80
2022-11-29T19:03:23.168Z,101575.20
2022-11-29T19:08:25.841Z,101580.40
2022-11-29T19:13:24.750Z,101575.80
2022-11-29T19:18:38.473Z,101582.60
2022-11-29T19:23:39.074Z,101590.40
2022-11-29T19:28:43.295Z,101591.20
2022-11-29T19:34:06.076Z,101590.80
2022-11-29T19:39:07.880Z,101597.60
2022-11-29T19:44:12.010Z,101604.80
2022-11-29T19:49:18.206Z,101614.60
2022-11-29T19:54:42.994Z,101616.60
2022-11-29T20:00:10.531Z,101612.20
2022-11-29T20:05:16.671Z,101611.00
2022-11-29T20:10:31.750Z,101609.60
2022-11-29T20:15:35.337Z,101620.40
2022-11-29T20:20:41.708Z,101624.60
2022-11-29T20:25:49.336Z,101622.60
2022-11-29T20:30:49.366Z,101620.20
2022-11-29T20:35:51.396Z,101619.00
2022-11-29T20:41:03.179Z,101623.20
2022-11-29T20:46:03.833Z,101621.80
2022-11-29T20:51:06.952Z,101624.20
2022-11-29T20:56:07.566Z,101618.60
2022-11-29T21:01:08.367Z,101625.40
2022-11-29T21:06:15.050Z,101632.20
2022-11-29T21:11:18.221Z,101631.00
2022-11-29T21:16:20.001Z,101635.00
2022-11-29T21:21:30.342Z,101629.80
2022-11-29T21:26:41.348Z,101636.80
2022-11-29T21:31:43.315Z,101646.60
2022-11-29T21:36:45.687Z,101648.00
2022-11-29T21:41:45.574Z,101646.20
2022-11-29T21:46:50.371Z,101643.40
2022-11-29T21:51:50.052Z,101646.20
2022-11-29T21:56:49.597Z,101647.60
2022-11-29T22:01:48.946Z,101649.20
2022-11-29T22:06:48.458Z,101652.00
2022-11-29T22:11:48.136Z,101651.60
2022-11-29T22:16:52.543Z,101660.00
2022-11-29T22:21:54.505Z,101660.00
2022-11-29T22:26:55.421Z,101656.80
2022-11-29T22:31:56.994Z,101660.00
2022-11-29T22:36:56.376Z,101671.60
2022-11-29T22:41:55.906Z,101674.00
2022-11-29T22:46:55.538Z,101674.00
2022-11-29T22:51:55.144Z,101671.40
2022-11-29T22:56:53.922Z,101665.60
2022-11-29T23:01:53.863Z,101663.00
2022-11-29T23:06:54.004Z,101664.40
2022-11-29T23:11:57.068Z,101656.20
2022-11-29T23:16:59.241Z,101659.00
2022-11-29T23:22:01.407Z,101655.00
2022-11-29T23:27:06.156Z,101645.60
2022-11-29T23:32:06.556Z,101648.80
2022-11-29T23:37:05.122Z,101641.60
2022-11-29T23:42:04.619Z,101647.80
2022-11-29T23:47:07.324Z,101649.40
2022-11-29T23:52:06.934Z,101643.00
2022-11-29T23:57:05.898Z,101639.00
